Time,TemperatureF,DewpointF,PressureIn,WindDirection,WindDirectionDegrees,WindSpeedMPH,WindSpeedGustMPH,Humidity,HourlyPrecipIn,Conditions,Clouds,dailyrainin,SolarRadiationWatts/m^2,SoftwareType,DateUTC
2013-08-09 11:17:00,61.5,55.2,-100.00,WSW,253,2.0,18.0,80,0.00,,,0.00,911.0,meteohub,2013-08-09 18:17:00,
2013-08-09 11:21:00,61.5,55.2,-100.00,WSW,253,1.0,18.0,80,0.00,,,0.00,911.0,meteohub,2013-08-09 18:21:00,
2013-08-09 11:24:00,61.5,55.6,-100.00,WSW,253,1.0,3.0,81,0.00,,,0.00,889.0,meteohub,2013-08-09 18:24:00,
2013-08-09 11:28:00,62.4,56.5,-100.00,WSW,253,0.0,4.0,81,0.00,,,0.00,889.0,meteohub,2013-08-09 18:28:00,
2013-08-09 11:32:00,63.0,56.7,-100.00,WSW,252,0.0,4.0,80,0.00,,,0.00,833.0,meteohub,2013-08-09 18:32:00,
2013-08-09 11:37:00,63.7,56.3,-100.00,East,92,1.0,4.0,77,0.00,,,0.00,809.0,meteohub,2013-08-09 18:37:00,
2013-08-09 11:42:00,63.7,55.9,-100.00,SSW,194,1.0,7.0,76,0.00,,,0.00,812.0,meteohub,2013-08-09 18:42:00,
2013-08-09 11:47:00,64.4,56.7,-100.00,SW,214,1.0,7.0,76,0.00,,,0.00,819.0,meteohub,2013-08-09 18:47:00,
2013-08-09 11:52:00,64.9,57.2,-100.00,SW,227,4.0,7.0,76,0.00,,,0.00,823.0,meteohub,2013-08-09 18:52:00,
2013-08-09 11:57:00,65.3,57.2,-100.00,WSW,238,0.0,7.0,75,0.00,,,0.00,826.0,meteohub,2013-08-09 18:57:00,
2013-08-09 12:02:00,66.0,57.2,-100.00,SSW,200,3.0,7.0,73,0.00,,,0.00,830.0,meteohub,2013-08-09 19:02:00,
2013-08-09 12:07:00,66.0,57.2,-100.00,SW,235,4.0,7.0,73,0.00,,,0.00,835.0,meteohub,2013-08-09 19:07:00,
2013-08-09 12:14:00,66.2,56.8,-100.00,WSW,238,0.0,8.0,72,0.00,,,0.00,844.0,meteohub,2013-08-09 19:14:00,
2013-08-09 12:20:00,66.9,57.6,-100.00,West,261,0.0,7.0,72,0.00,,,0.00,854.0,meteohub,2013-08-09 19:20:00,
2013-08-09 12:26:00,68.4,58.3,-100.00,WSW,244,4.0,7.0,70,0.00,,,0.00,858.0,meteohub,2013-08-09 19:26:00,
2013-08-09 12:32:00,68.5,57.9,-100.00,NNW,328,1.0,6.0,69,0.00,,,0.00,854.0,meteohub,2013-08-09 19:32:00,
2013-08-09 12:37:00,68.7,57.7,-100.00,NW,312,1.0,6.0,68,0.00,,,0.00,856.0,meteohub,2013-08-09 19:37:00,
2013-08-09 12:42:00,69.3,57.9,-100.00,SW,234,1.0,6.0,67,0.00,,,0.00,868.0,meteohub,2013-08-09 19:42:00,
2013-08-09 12:47:00,70.0,59.4,-100.00,SW,234,0.0,6.0,69,0.00,,,0.00,867.0,meteohub,2013-08-09 19:47:00,
2013-08-09 12:52:00,70.7,58.8,-100.00,SW,228,6.0,7.0,66,0.00,,,0.00,867.0,meteohub,2013-08-09 19:52:00,
2013-08-09 12:57:00,70.7,59.2,-100.00,SW,232,0.0,7.0,67,0.00,,,0.00,868.0,meteohub,2013-08-09 19:57:00,
2013-08-09 13:03:00,71.2,59.7,-100.00,WSW,240,4.0,7.0,67,0.00,,,0.00,872.0,meteohub,2013-08-09 20:03:00,
2013-08-09 13:10:00,72.3,58.6,-100.00,WSW,241,1.0,7.0,62,0.00,,,0.00,874.0,meteohub,2013-08-09 20:10:00,
2013-08-09 13:16:00,72.7,58.8,-100.00,South,170,2.0,7.0,62,0.00,,,0.00,875.0,meteohub,2013-08-09 20:16:00,
2013-08-09 13:22:00,71.4,57.7,-100.00,SSW,203,1.0,9.0,62,0.00,,,0.00,879.0,meteohub,2013-08-09 20:22:00,
2013-08-09 13:28:00,69.8,57.0,-100.00,WSW,246,12.0,13.0,64,0.00,,,0.00,877.0,meteohub,2013-08-09 20:28:00,
2013-08-09 13:35:00,67.8,56.5,-100.00,SW,234,9.0,15.0,67,0.00,,,0.00,874.0,meteohub,2013-08-09 20:35:00,
2013-08-09 13:41:00,67.3,56.3,-100.00,SW,224,6.0,15.0,68,0.00,,,0.00,870.0,meteohub,2013-08-09 20:41:00,
2013-08-09 13:47:00,66.6,56.1,-100.00,WSW,254,9.0,16.0,69,0.00,,,0.00,872.0,meteohub,2013-08-09 20:47:00,
2013-08-09 13:52:00,65.5,55.4,-100.00,SW,229,10.0,18.0,70,0.00,,,0.00,870.0,meteohub,2013-08-09 20:52:00,
2013-08-09 13:57:00,65.8,56.1,-100.00,SW,235,9.0,19.0,71,0.00,,,0.00,867.0,meteohub,2013-08-09 20:57:00,
2013-08-09 14:04:00,65.8,55.8,-100.00,WSW,251,11.0,16.0,70,0.00,,,0.00,861.0,meteohub,2013-08-09 21:04:00,
2013-08-09 14:10:00,65.8,56.1,-100.00,SW,236,4.0,16.0,71,0.00,,,0.00,853.0,meteohub,2013-08-09 21:10:00,
2013-08-09 14:16:00,66.4,56.3,-100.00,SSE,164,4.0,14.0,70,0.00,,,0.00,846.0,meteohub,2013-08-09 21:16:00,
2013-08-09 14:22:00,66.2,56.1,-100.00,South,185,6.0,14.0,70,0.00,,,0.00,846.0,meteohub,2013-08-09 21:22:00,
2013-08-09 14:27:00,66.0,55.6,-100.00,WSW,257,1.0,12.0,69,0.00,,,0.00,840.0,meteohub,2013-08-09 21:27:00,
2013-08-09 14:32:00,65.8,55.4,-100.00,WSW,238,6.0,12.0,69,0.00,,,0.00,835.0,meteohub,2013-08-09 21:32:00,
2013-08-09 14:37:00,65.5,55.8,-100.00,SSW,213,0.0,12.0,71,0.00,,,0.00,826.0,meteohub,2013-08-09 21:37:00,
2013-08-09 14:42:00,66.4,56.7,-100.00,SE,142,4.0,12.0,71,0.00,,,0.00,816.0,meteohub,2013-08-09 21:42:00,
2013-08-09 14:47:00,66.9,56.5,-100.00,SE,135,1.0,11.0,69,0.00,,,0.00,814.0,meteohub,2013-08-09 21:47:00,
2013-08-09 14:53:00,67.3,56.8,-100.00,South,187,1.0,10.0,69,0.00,,,0.00,803.0,meteohub,2013-08-09 21:53:00,
2013-08-09 15:00:00,67.3,56.3,-100.00,SW,232,1.0,10.0,68,0.00,,,0.00,796.0,meteohub,2013-08-09 22:00:00,
2013-08-09 15:06:00,67.3,55.9,-100.00,South,171,2.0,10.0,67,0.00,,,0.00,791.0,meteohub,2013-08-09 22:06:00,
2013-08-09 15:12:00,67.1,56.1,-100.00,WSW,244,4.0,10.0,68,0.00,,,0.00,775.0,meteohub,2013-08-09 22:12:00,
2013-08-09 15:17:00,66.9,55.9,-100.00,SW,219,4.0,11.0,68,0.00,,,0.00,768.0,meteohub,2013-08-09 22:17:00,
2013-08-09 15:23:00,66.9,56.5,-100.00,SW,223,1.0,11.0,69,0.00,,,0.00,758.0,meteohub,2013-08-09 22:23:00,
2013-08-09 15:29:00,67.1,56.1,-100.00,SSW,209,5.0,11.0,68,0.00,,,0.00,747.0,meteohub,2013-08-09 22:29:00,
2013-08-09 15:35:00,67.5,56.5,-100.00,SSW,209,0.0,11.0,68,0.00,,,0.00,733.0,meteohub,2013-08-09 22:35:00,
2013-08-09 15:41:00,68.4,56.5,-100.00,WSW,246,7.0,11.0,66,0.00,,,0.00,715.0,meteohub,2013-08-09 22:41:00,
2013-08-09 15:47:00,68.4,56.5,-100.00,SSW,198,2.0,9.0,66,0.00,,,0.00,703.0,meteohub,2013-08-09 22:47:00,
2013-08-09 15:54:00,67.3,56.3,-100.00,South,186,2.0,12.0,68,0.00,,,0.00,689.0,meteohub,2013-08-09 22:54:00,
2013-08-09 16:00:00,67.3,56.3,-100.00,WSW,250,5.0,12.0,68,0.00,,,0.00,673.0,meteohub,2013-08-09 23:00:00,
2013-08-09 16:06:00,66.2,55.4,-100.00,West,266,5.0,12.0,68,0.00,,,0.00,638.0,meteohub,2013-08-09 23:06:00,
2013-08-09 16:12:00,66.4,56.3,-100.00,WSW,249,7.0,12.0,70,0.00,,,0.00,654.0,meteohub,2013-08-09 23:12:00,
2013-08-09 16:19:00,66.0,55.6,-100.00,SSE,149,4.0,13.0,69,0.00,,,0.00,631.0,meteohub,2013-08-09 23:19:00,
2013-08-09 16:25:00,65.8,55.8,-100.00,SSW,212,5.0,12.0,70,0.00,,,0.00,612.0,meteohub,2013-08-09 23:25:00,
2013-08-09 16:31:00,65.5,55.8,-100.00,South,181,5.0,12.0,71,0.00,,,0.00,589.0,meteohub,2013-08-09 23:31:00,
2013-08-09 16:37:00,65.5,55.8,-100.00,South,189,5.0,13.0,71,0.00,,,0.00,575.0,meteohub,2013-08-09 23:37:00,
2013-08-09 16:42:00,64.9,55.8,-100.00,East,99,2.0,13.0,72,0.00,,,0.00,561.0,meteohub,2013-08-09 23:42:00,
2013-08-09 16:47:00,65.1,55.9,-100.00,SW,230,5.0,14.0,72,0.00,,,0.00,541.0,meteohub,2013-08-09 23:47:00,
2013-08-09 16:52:00,64.9,55.8,-100.00,ESE,119,5.0,14.0,72,0.00,,,0.00,531.0,meteohub,2013-08-09 23:52:00,
2013-08-09 16:57:00,64.9,55.8,-100.00,SSE,159,3.0,14.0,72,0.00,,,0.00,515.0,meteohub,2013-08-09 23:57:00,
2013-08-09 17:02:00,65.1,56.3,-100.00,SSE,155,0.0,14.0,73,0.00,,,0.00,499.0,meteohub,2013-08-10 00:02:00,
2013-08-09 17:07:00,64.9,56.1,-100.00,SW,229,7.0,9.0,73,0.00,,,0.00,478.0,meteohub,2013-08-10 00:07:00,
2013-08-09 17:12:00,64.2,55.8,-100.00,SSW,213,2.0,9.0,74,0.00,,,0.00,457.0,meteohub,2013-08-10 00:12:00,
2013-08-09 17:17:00,64.2,55.8,-100.00,SSE,162,1.0,12.0,74,0.00,,,0.00,408.0,meteohub,2013-08-10 00:17:00,
2013-08-09 17:22:00,64.2,55.8,-100.00,West,260,5.0,12.0,74,0.00,,,0.00,417.0,meteohub,2013-08-10 00:22:00,
2013-08-09 17:27:00,64.0,55.6,-100.00,South,180,1.0,10.0,74,0.00,,,0.00,399.0,meteohub,2013-08-10 00:27:00,
2013-08-09 17:33:00,63.5,55.4,-100.00,WSW,244,6.0,10.0,75,0.00,,,0.00,388.0,meteohub,2013-08-10 00:33:00,
2013-08-09 17:39:00,63.3,55.2,-100.00,SW,217,1.0,10.0,75,0.00,,,0.00,380.0,meteohub,2013-08-10 00:39:00,
2013-08-09 17:46:00,63.5,55.4,-100.00,WSW,248,6.0,10.0,75,0.00,,,0.00,362.0,meteohub,2013-08-10 00:46:00,
2013-08-09 17:52:00,63.0,55.2,-100.00,South,185,7.0,10.0,76,0.00,,,0.00,336.0,meteohub,2013-08-10 00:52:00,
2013-08-09 17:57:00,62.6,55.2,-100.00,WSW,243,4.0,11.0,77,0.00,,,0.00,322.0,meteohub,2013-08-10 00:57:00,
2013-08-09 18:02:00,63.0,55.6,-100.00,SSW,212,1.0,11.0,77,0.00,,,0.00,309.0,meteohub,2013-08-10 01:02:00,
2013-08-09 18:08:00,63.0,55.2,-100.00,South,187,4.0,8.0,76,0.00,,,0.00,292.0,meteohub,2013-08-10 01:08:00,
2013-08-09 18:15:00,62.8,55.0,-100.00,SSW,202,0.0,9.0,76,0.00,,,0.00,274.0,meteohub,2013-08-10 01:15:00,
2013-08-09 18:21:00,62.8,55.4,-100.00,West,276,6.0,9.0,77,0.00,,,0.00,223.0,meteohub,2013-08-10 01:21:00,
2013-08-09 18:27:00,62.2,54.9,-100.00,SSE,158,0.0,9.0,77,0.00,,,0.00,69.0,meteohub,2013-08-10 01:27:00,
2013-08-09 18:33:00,61.5,54.9,-100.00,West,265,0.0,9.0,79,0.00,,,0.00,62.0,meteohub,2013-08-10 01:33:00,
2013-08-09 18:40:00,61.2,54.7,-100.00,SW,233,5.0,9.0,79,0.00,,,0.00,54.0,meteohub,2013-08-10 01:40:00,
2013-08-09 18:46:00,60.8,54.9,-100.00,South,184,5.0,8.0,81,0.00,,,0.00,51.0,meteohub,2013-08-10 01:46:00,
2013-08-09 18:52:00,60.6,54.7,-100.00,WSW,241,0.0,8.0,81,0.00,,,0.00,47.0,meteohub,2013-08-10 01:52:00,
2013-08-09 18:57:00,60.4,54.5,-100.00,WSW,242,6.0,8.0,81,0.00,,,0.00,46.0,meteohub,2013-08-10 01:57:00,
2013-08-09 19:02:00,60.1,54.5,-100.00,WSW,241,8.0,8.0,82,0.00,,,0.00,42.0,meteohub,2013-08-10 02:02:00,
2013-08-09 19:07:00,59.5,54.3,-100.00,SW,232,6.0,8.0,83,0.00,,,0.00,40.0,meteohub,2013-08-10 02:07:00,
2013-08-09 19:12:00,59.4,54.1,-100.00,SW,229,1.0,8.0,83,0.00,,,0.00,39.0,meteohub,2013-08-10 02:12:00,
2013-08-09 19:17:00,59.2,54.3,-100.00,SW,234,1.0,9.0,84,0.00,,,0.00,35.0,meteohub,2013-08-10 02:17:00,
2013-08-09 19:22:00,58.8,54.0,-100.00,SW,218,3.0,9.0,84,0.00,,,0.00,32.0,meteohub,2013-08-10 02:22:00,
2013-08-09 19:27:00,58.6,54.1,-100.00,WSW,248,3.0,8.0,85,0.00,,,0.00,28.0,meteohub,2013-08-10 02:27:00,
2013-08-09 19:33:00,58.6,54.1,-100.00,WSW,240,0.0,8.0,85,0.00,,,0.00,25.0,meteohub,2013-08-10 02:33:00,
2013-08-09 19:40:00,58.3,53.8,-100.00,SW,234,2.0,8.0,85,0.00,,,0.00,21.0,meteohub,2013-08-10 02:40:00,
2013-08-09 19:46:00,57.9,53.4,-100.00,SW,221,3.0,6.0,85,0.00,,,0.00,18.0,meteohub,2013-08-10 02:46:00,
2013-08-09 19:52:00,57.7,53.6,-100.00,SW,227,0.0,6.0,86,0.00,,,0.00,14.0,meteohub,2013-08-10 02:52:00,
2013-08-09 19:57:00,57.6,53.4,-100.00,SW,217,0.0,8.0,86,0.00,,,0.00,11.0,meteohub,2013-08-10 02:57:00,
2013-08-09 20:02:00,57.4,53.6,-100.00,SSW,209,1.0,8.0,87,0.00,,,0.00,7.0,meteohub,2013-08-10 03:02:00,
2013-08-09 20:07:00,57.0,53.2,-100.00,SW,221,0.0,7.0,87,0.00,,,0.00,5.0,meteohub,2013-08-10 03:07:00,
2013-08-09 20:12:00,56.8,53.1,-100.00,SW,221,0.0,7.0,87,0.00,,,0.00,0.0,meteohub,2013-08-10 03:12:00,
2013-08-09 20:17:00,57.0,53.2,-100.00,SW,225,1.0,7.0,87,0.00,,,0.00,0.0,meteohub,2013-08-10 03:17:00,
2013-08-09 20:23:00,56.7,52.9,-100.00,SW,228,0.0,7.0,87,0.00,,,0.00,0.0,meteohub,2013-08-10 03:23:00,
2013-08-09 20:30:00,56.7,53.1,-100.00,SW,231,0.0,4.0,88,0.00,,,0.00,0.0,meteohub,2013-08-10 03:30:00,
2013-08-09 20:36:00,56.5,52.9,-100.00,SW,234,0.0,4.0,88,0.00,,,0.00,0.0,meteohub,2013-08-10 03:36:00,
2013-08-09 20:42:00,56.5,52.9,-100.00,SW,234,0.0,4.0,88,0.00,,,0.00,0.0,meteohub,2013-08-10 03:42:00,
2013-08-09 20:47:00,56.5,52.9,-100.00,SW,234,0.0,3.0,88,0.00,,,0.00,0.0,meteohub,2013-08-10 03:47:00,
2013-08-09 20:52:00,56.5,52.9,-100.00,SW,234,0.0,3.0,88,0.00,,,0.00,0.0,meteohub,2013-08-10 03:52:00,
2013-08-09 20:59:00,56.1,52.7,-100.00,SW,234,0.0,1.0,88,0.00,,,0.00,0.0,meteohub,2013-08-10 03:59:00,
2013-08-09 21:01:00,56.1,52.9,-100.00,SW,234,0.0,1.0,89,0.00,,,0.00,0.0,meteohub,2013-08-10 04:01:00,
2013-08-09 21:03:00,56.1,52.9,-100.00,SW,234,0.0,1.0,89,0.00,,,0.00,0.0,meteohub,2013-08-10 04:03:00,
2013-08-09 21:05:00,55.9,52.7,-100.00,SW,234,0.0,1.0,89,0.00,,,0.00,0.0,meteohub,2013-08-10 04:05:00,
2013-08-09 21:07:00,55.9,52.7,-100.00,SW,234,0.0,1.0,89,0.00,,,0.00,0.0,meteohub,2013-08-10 04:07:00,
2013-08-09 21:12:00,55.9,52.7,-100.00,SW,234,0.0,1.0,89,0.00,,,0.00,0.0,meteohub,2013-08-10 04:12:00,
2013-08-09 21:13:00,55.9,52.7,-100.00,SW,234,0.0,1.0,89,0.00,,,0.00,0.0,meteohub,2013-08-10 04:13:00,
2013-08-09 21:19:00,55.9,52.7,-100.00,SW,234,0.0,1.0,89,0.00,,,0.00,0.0,meteohub,2013-08-10 04:19:00,
2013-08-09 21:26:00,55.8,52.5,-100.00,SW,234,0.0,0.0,89,0.00,,,0.00,0.0,meteohub,2013-08-10 04:26:00,
2013-08-09 21:32:00,55.8,52.5,-100.00,SW,234,0.0,0.0,89,0.00,,,0.00,0.0,meteohub,2013-08-10 04:32:00,
2013-08-09 21:37:00,55.8,52.5,-100.00,SW,234,0.0,1.0,89,0.00,,,0.00,0.0,meteohub,2013-08-10 04:37:00,
2013-08-09 21:42:00,55.6,52.3,-100.00,SW,234,0.0,1.0,89,0.00,,,0.00,0.0,meteohub,2013-08-10 04:42:00,
2013-08-09 21:47:00,55.6,52.3,-100.00,SW,234,0.0,0.0,89,0.00,,,0.00,0.0,meteohub,2013-08-10 04:47:00,
2013-08-09 21:52:00,55.6,52.3,-100.00,SW,234,0.0,0.0,89,0.00,,,0.00,0.0,meteohub,2013-08-10 04:52:00,
2013-08-09 21:57:00,55.4,52.5,-100.00,SW,234,0.0,0.0,90,0.00,,,0.00,0.0,meteohub,2013-08-10 04:57:00,
2013-08-09 22:02:00,55.6,52.7,-100.00,SW,234,0.0,0.0,90,0.00,,,0.00,0.0,meteohub,2013-08-10 05:02:00,
2013-08-09 22:07:00,55.6,52.7,-100.00,SW,234,0.0,0.0,90,0.00,,,0.00,0.0,meteohub,2013-08-10 05:07:00,
2013-08-09 22:12:00,55.6,52.7,-100.00,SW,234,0.0,0.0,90,0.00,,,0.00,0.0,meteohub,2013-08-10 05:12:00,
2013-08-09 22:17:00,55.6,52.7,-100.00,SW,234,0.0,1.0,90,0.00,,,0.00,0.0,meteohub,2013-08-10 05:17:00,
2013-08-09 22:22:00,55.4,52.9,-100.00,SW,234,0.0,1.0,91,0.00,,,0.00,0.0,meteohub,2013-08-10 05:22:00,
2013-08-09 22:27:00,55.2,52.7,-100.00,SW,234,0.0,0.0,91,0.00,,,0.00,0.0,meteohub,2013-08-10 05:27:00,
2013-08-09 22:32:00,55.2,52.7,-100.00,SW,234,0.0,0.0,91,0.00,,,0.00,0.0,meteohub,2013-08-10 05:32:00,
2013-08-09 22:37:00,55.4,52.9,-100.00,SW,234,0.0,0.0,91,0.00,,,0.00,0.0,meteohub,2013-08-10 05:37:00,
2013-08-09 22:42:00,55.4,52.5,-100.00,SW,234,0.0,0.0,90,0.00,,,0.00,0.0,meteohub,2013-08-10 05:42:00,
2013-08-09 22:47:00,55.6,53.1,-100.00,SW,234,0.0,0.0,91,0.00,,,0.00,0.0,meteohub,2013-08-10 05:47:00,
2013-08-09 22:52:00,55.9,53.4,-100.00,SW,234,0.0,0.0,91,0.00,,,0.00,0.0,meteohub,2013-08-10 05:52:00,
2013-08-09 22:57:00,56.1,53.2,-100.00,SW,234,0.0,0.0,90,0.00,,,0.00,0.0,meteohub,2013-08-10 05:57:00,
2013-08-09 23:02:00,56.3,53.4,-100.00,SW,234,0.0,0.0,90,0.00,,,0.00,0.0,meteohub,2013-08-10 06:02:00,
2013-08-09 23:07:00,56.5,53.6,-100.00,SW,234,0.0,0.0,90,0.00,,,0.00,0.0,meteohub,2013-08-10 06:07:00,
2013-08-09 23:12:00,56.5,53.6,-100.00,SW,234,0.0,0.0,90,0.00,,,0.00,0.0,meteohub,2013-08-10 06:12:00,
2013-08-09 23:17:00,56.3,53.4,-100.00,SW,234,0.0,0.0,90,0.00,,,0.00,0.0,meteohub,2013-08-10 06:17:00,
2013-08-09 23:22:00,56.5,53.6,-100.00,SW,234,0.0,0.0,90,0.00,,,0.00,0.0,meteohub,2013-08-10 06:22:00,
2013-08-09 23:27:00,56.1,52.9,-100.00,SW,234,0.0,0.0,89,0.00,,,0.00,0.0,meteohub,2013-08-10 06:27:00,
2013-08-09 23:32:00,56.1,53.2,-100.00,SW,234,0.0,0.0,90,0.00,,,0.00,0.0,meteohub,2013-08-10 06:32:00,
2013-08-09 23:37:00,56.1,53.2,-100.00,SW,234,0.0,0.0,90,0.00,,,0.00,0.0,meteohub,2013-08-10 06:37:00,
2013-08-09 23:42:00,56.1,53.8,-100.00,SW,234,0.0,0.0,92,0.00,,,0.00,0.0,meteohub,2013-08-10 06:42:00,
2013-08-09 23:47:00,55.9,52.7,-100.00,SW,234,0.0,0.0,89,0.00,,,0.00,0.0,meteohub,2013-08-10 06:47:00,
2013-08-09 23:52:00,55.8,52.9,-100.00,SW,234,0.0,0.0,90,0.00,,,0.00,0.0,meteohub,2013-08-10 06:52:00,
2013-08-09 23:59:00,55.6,52.7,-100.00,SW,234,0.0,0.0,90,0.00,,,0.00,0.0,meteohub,2013-08-10 06:59:00,